sensor_id;sensor_type;location;lat;lon;timestamp;P1;durP1;ratioP1;P2;durP2;ratioP2
54983;SDS011;40884;53.562;9.940;2022-08-19T00:00:09;7.43;;;6.73;;
54983;SDS011;40884;53.562;9.940;2022-08-19T00:01:09;7.50;;;6.70;;
54983;SDS011;40884;53.562;9.940;2022-08-19T00:02:10;7.50;;;6.77;;
54983;SDS011;40884;53.562;9.940;2022-08-19T00:03:10;7.97;;;7.17;;
54983;SDS011;40884;53.562;9.940;2022-08-19T00:04:11;7.43;;;6.67;;
54983;SDS011;40884;53.562;9.940;2022-08-19T00:05:12;8.73;;;7.37;;
54983;SDS011;40884;53.562;9.940;2022-08-19T00:06:13;8.50;;;6.83;;
54983;SDS011;40884;53.562;9.940;2022-08-19T00:07:13;8.33;;;7.40;;
54983;SDS011;40884;53.562;9.940;2022-08-19T00:08:13;8.73;;;7.47;;
54983;SDS011;40884;53.562;9.940;2022-08-19T00:09:14;8.30;;;7.57;;
54983;SDS011;40884;53.562;9.940;2022-08-19T00:10:15;9.00;;;7.03;;
54983;SDS011;40884;53.562;9.940;2022-08-19T00:11:15;7.37;;;6.67;;
54983;SDS011;40884;53.562;9.940;2022-08-19T00:12:15;9.07;;;6.97;;
54983;SDS011;40884;53.562;9.940;2022-08-19T00:13:15;9.00;;;7.33;;
54983;SDS011;40884;53.562;9.940;2022-08-19T00:14:16;8.50;;;7.53;;
54983;SDS011;40884;53.562;9.940;2022-08-19T00:15:17;8.53;;;7.03;;
54983;SDS011;40884;53.562;9.940;2022-08-19T00:16:18;8.40;;;7.47;;
54983;SDS011;40884;53.562;9.940;2022-08-19T00:17:19;9.23;;;7.50;;
54983;SDS011;40884;53.562;9.940;2022-08-19T00:18:19;8.33;;;7.40;;
54983;SDS011;40884;53.562;9.940;2022-08-19T00:19:20;9.13;;;8.17;;
54983;SDS011;40884;53.562;9.940;2022-08-19T00:20:21;8.67;;;7.77;;
54983;SDS011;40884;53.562;9.940;2022-08-19T00:21:22;9.70;;;8.50;;
54983;SDS011;40884;53.562;9.940;2022-08-19T00:22:22;8.97;;;8.07;;
54983;SDS011;40884;53.562;9.940;2022-08-19T00:23:22;9.43;;;8.03;;
54983;SDS011;40884;53.562;9.940;2022-08-19T00:24:22;11.27;;;8.43;;
54983;SDS011;40884;53.562;9.940;2022-08-19T00:25:22;9.47;;;8.53;;
54983;SDS011;40884;53.562;9.940;2022-08-19T00:26:22;9.70;;;8.70;;
54983;SDS011;40884;53.562;9.940;2022-08-19T00:27:22;10.90;;;8.67;;
54983;SDS011;40884;53.562;9.940;2022-08-19T00:28:23;10.10;;;9.20;;
54983;SDS011;40884;53.562;9.940;2022-08-19T00:29:24;10.63;;;9.60;;
54983;SDS011;40884;53.562;9.940;2022-08-19T00:30:24;11.23;;;10.03;;
54983;SDS011;40884;53.562;9.940;2022-08-19T00:31:25;11.13;;;9.97;;
54983;SDS011;40884;53.562;9.940;2022-08-19T00:32:25;11.47;;;10.37;;
54983;SDS011;40884;53.562;9.940;2022-08-19T00:33:25;10.97;;;9.87;;
54983;SDS011;40884;53.562;9.940;2022-08-19T00:34:25;13.23;;;11.07;;
54983;SDS011;40884;53.562;9.940;2022-08-19T00:35:26;12.00;;;10.40;;
54983;SDS011;40884;53.562;9.940;2022-08-19T00:36:26;11.27;;;10.23;;
54983;SDS011;40884;53.562;9.940;2022-08-19T00:37:26;12.47;;;11.17;;
54983;SDS011;40884;53.562;9.940;2022-08-19T00:38:27;15.17;;;12.70;;
54983;SDS011;40884;53.562;9.940;2022-08-19T00:39:27;15.03;;;13.37;;
54983;SDS011;40884;53.562;9.940;2022-08-19T00:40:27;16.47;;;12.73;;
54983;SDS011;40884;53.562;9.940;2022-08-19T00:41:27;15.90;;;13.50;;
54983;SDS011;40884;53.562;9.940;2022-08-19T00:42:27;16.67;;;12.70;;
54983;SDS011;40884;53.562;9.940;2022-08-19T00:43:28;14.30;;;12.80;;
54983;SDS011;40884;53.562;9.940;2022-08-19T00:44:28;15.30;;;13.17;;
54983;SDS011;40884;53.562;9.940;2022-08-19T00:45:29;14.13;;;12.63;;
54983;SDS011;40884;53.562;9.940;2022-08-19T00:46:29;14.30;;;12.73;;
54983;SDS011;40884;53.562;9.940;2022-08-19T00:47:29;16.97;;;15.17;;
54983;SDS011;40884;53.562;9.940;2022-08-19T00:48:30;15.70;;;14.17;;
54983;SDS011;40884;53.562;9.940;2022-08-19T00:49:32;15.50;;;13.83;;
54983;SDS011;40884;53.562;9.940;2022-08-19T00:50:34;16.33;;;14.40;;
54983;SDS011;40884;53.562;9.940;2022-08-19T00:51:34;15.47;;;13.83;;
54983;SDS011;40884;53.562;9.940;2022-08-19T00:52:39;16.70;;;14.03;;
54983;SDS011;40884;53.562;9.940;2022-08-19T00:53:40;16.43;;;14.63;;
54983;SDS011;40884;53.562;9.940;2022-08-19T00:54:41;21.50;;;15.57;;
54983;SDS011;40884;53.562;9.940;2022-08-19T00:55:42;19.47;;;16.83;;
54983;SDS011;40884;53.562;9.940;2022-08-19T00:56:42;19.00;;;16.53;;
54983;SDS011;40884;53.562;9.940;2022-08-19T00:57:44;19.17;;;16.33;;
54983;SDS011;40884;53.562;9.940;2022-08-19T00:58:45;17.77;;;15.97;;
54983;SDS011;40884;53.562;9.940;2022-08-19T00:59:46;22.40;;;17.73;;
54983;SDS011;40884;53.562;9.940;2022-08-19T01:00:47;19.57;;;17.47;;
54983;SDS011;40884;53.562;9.940;2022-08-19T01:01:48;20.50;;;17.70;;
54983;SDS011;40884;53.562;9.940;2022-08-19T01:02:48;18.43;;;16.50;;
54983;SDS011;40884;53.562;9.940;2022-08-19T01:03:48;22.80;;;19.90;;
54983;SDS011;40884;53.562;9.940;2022-08-19T01:04:48;22.90;;;18.43;;
54983;SDS011;40884;53.562;9.940;2022-08-19T01:05:49;22.13;;;18.77;;
54983;SDS011;40884;53.562;9.940;2022-08-19T01:06:49;22.53;;;19.13;;
54983;SDS011;40884;53.562;9.940;2022-08-19T01:07:50;25.17;;;21.10;;
54983;SDS011;40884;53.562;9.940;2022-08-19T01:08:50;21.37;;;18.70;;
54983;SDS011;40884;53.562;9.940;2022-08-19T01:09:50;20.07;;;17.90;;
54983;SDS011;40884;53.562;9.940;2022-08-19T01:10:54;21.47;;;18.20;;
54983;SDS011;40884;53.562;9.940;2022-08-19T01:11:55;24.33;;;19.37;;
54983;SDS011;40884;53.562;9.940;2022-08-19T01:12:57;20.77;;;18.67;;
54983;SDS011;40884;53.562;9.940;2022-08-19T01:13:57;21.27;;;19.07;;
54983;SDS011;40884;53.562;9.940;2022-08-19T01:14:58;20.20;;;18.00;;
54983;SDS011;40884;53.562;9.940;2022-08-19T01:16:00;20.00;;;18.03;;
54983;SDS011;40884;53.562;9.940;2022-08-19T01:17:01;23.90;;;19.50;;
54983;SDS011;40884;53.562;9.940;2022-08-19T01:18:04;21.93;;;19.57;;
54983;SDS011;40884;53.562;9.940;2022-08-19T01:19:27;21.37;;;19.07;;
54983;SDS011;40884;53.562;9.940;2022-08-19T01:20:25;22.80;;;19.50;;
54983;SDS011;40884;53.562;9.940;2022-08-19T01:21:32;22.43;;;18.63;;
54983;SDS011;40884;53.562;9.940;2022-08-19T01:22:34;21.40;;;18.40;;
54983;SDS011;40884;53.562;9.940;2022-08-19T01:23:37;23.13;;;18.30;;
54983;SDS011;40884;53.562;9.940;2022-08-19T01:24:37;20.00;;;17.57;;
54983;SDS011;40884;53.562;9.940;2022-08-19T01:25:47;20.17;;;17.27;;
54983;SDS011;40884;53.562;9.940;2022-08-19T01:26:48;19.47;;;16.73;;
54983;SDS011;40884;53.562;9.940;2022-08-19T01:27:49;20.40;;;16.77;;
54983;SDS011;40884;53.562;9.940;2022-08-19T01:28:50;21.30;;;18.73;;
54983;SDS011;40884;53.562;9.940;2022-08-19T01:29:50;23.20;;;18.23;;
54983;SDS011;40884;53.562;9.940;2022-08-19T01:30:51;19.83;;;17.73;;
54983;SDS011;40884;53.562;9.940;2022-08-19T01:31:51;21.13;;;17.63;;
54983;SDS011;40884;53.562;9.940;2022-08-19T01:32:52;19.30;;;17.13;;
54983;SDS011;40884;53.562;9.940;2022-08-19T01:33:53;19.10;;;16.30;;
54983;SDS011;40884;53.562;9.940;2022-08-19T01:34:54;21.40;;;18.43;;
54983;SDS011;40884;53.562;9.940;2022-08-19T01:35:54;20.67;;;18.47;;
54983;SDS011;40884;53.562;9.940;2022-08-19T01:37:06;22.60;;;18.50;;
54983;SDS011;40884;53.562;9.940;2022-08-19T01:38:08;19.97;;;17.10;;
54983;SDS011;40884;53.562;9.940;2022-08-19T01:39:10;22.30;;;18.70;;
54983;SDS011;40884;53.562;9.940;2022-08-19T01:40:11;20.07;;;17.10;;
54983;SDS011;40884;53.562;9.940;2022-08-19T01:41:11;22.07;;;17.80;;
54983;SDS011;40884;53.562;9.940;2022-08-19T01:42:11;19.83;;;17.73;;
54983;SDS011;40884;53.562;9.940;2022-08-19T01:43:12;20.40;;;18.17;;
54983;SDS011;40884;53.562;9.940;2022-08-19T01:44:12;20.20;;;16.23;;
54983;SDS011;40884;53.562;9.940;2022-08-19T01:45:12;19.23;;;17.23;;
54983;SDS011;40884;53.562;9.940;2022-08-19T01:46:12;18.17;;;15.97;;
54983;SDS011;40884;53.562;9.940;2022-08-19T01:47:12;18.87;;;16.53;;
54983;SDS011;40884;53.562;9.940;2022-08-19T01:48:13;17.03;;;15.23;;
54983;SDS011;40884;53.562;9.940;2022-08-19T01:49:14;18.80;;;16.80;;
54983;SDS011;40884;53.562;9.940;2022-08-19T01:50:15;17.77;;;15.87;;
54983;SDS011;40884;53.562;9.940;2022-08-19T01:51:15;18.80;;;16.93;;
54983;SDS011;40884;53.562;9.940;2022-08-19T01:52:15;18.70;;;16.90;;
54983;SDS011;40884;53.562;9.940;2022-08-19T01:53:15;20.60;;;18.07;;
54983;SDS011;40884;53.562;9.940;2022-08-19T01:54:16;19.57;;;17.47;;
54983;SDS011;40884;53.562;9.940;2022-08-19T01:55:17;21.73;;;18.07;;
54983;SDS011;40884;53.562;9.940;2022-08-19T01:56:18;20.67;;;17.57;;
54983;SDS011;40884;53.562;9.940;2022-08-19T01:57:18;19.37;;;17.27;;
54983;SDS011;40884;53.562;9.940;2022-08-19T01:58:19;23.60;;;18.70;;
54983;SDS011;40884;53.562;9.940;2022-08-19T01:59:21;23.13;;;17.73;;
54983;SDS011;40884;53.562;9.940;2022-08-19T02:00:23;24.20;;;18.37;;
54983;SDS011;40884;53.562;9.940;2022-08-19T02:01:23;21.77;;;18.43;;
54983;SDS011;40884;53.562;9.940;2022-08-19T02:02:23;18.40;;;16.43;;
54983;SDS011;40884;53.562;9.940;2022-08-19T02:03:24;21.07;;;18.83;;
54983;SDS011;40884;53.562;9.940;2022-08-19T02:04:24;22.30;;;18.07;;
54983;SDS011;40884;53.562;9.940;2022-08-19T02:05:24;25.10;;;18.43;;
54983;SDS011;40884;53.562;9.940;2022-08-19T02:06:24;22.67;;;19.40;;
54983;SDS011;40884;53.562;9.940;2022-08-19T02:07:24;22.50;;;19.33;;
54983;SDS011;40884;53.562;9.940;2022-08-19T02:08:25;25.20;;;18.60;;
54983;SDS011;40884;53.562;9.940;2022-08-19T02:09:26;20.93;;;17.33;;
54983;SDS011;40884;53.562;9.940;2022-08-19T02:10:26;23.20;;;18.67;;
54983;SDS011;40884;53.562;9.940;2022-08-19T02:11:31;23.33;;;18.60;;
54983;SDS011;40884;53.562;9.940;2022-08-19T02:12:31;26.57;;;19.40;;
54983;SDS011;40884;53.562;9.940;2022-08-19T02:13:32;26.73;;;19.87;;
54983;SDS011;40884;53.562;9.940;2022-08-19T02:14:33;24.87;;;19.43;;
54983;SDS011;40884;53.562;9.940;2022-08-19T02:15:33;23.97;;;19.23;;
54983;SDS011;40884;53.562;9.940;2022-08-19T02:16:34;26.30;;;18.27;;
54983;SDS011;40884;53.562;9.940;2022-08-19T02:17:35;24.73;;;20.23;;
54983;SDS011;40884;53.562;9.940;2022-08-19T02:18:35;23.93;;;18.33;;
54983;SDS011;40884;53.562;9.940;2022-08-19T02:19:36;23.03;;;18.70;;
54983;SDS011;40884;53.562;9.940;2022-08-19T02:20:36;21.77;;;17.67;;
54983;SDS011;40884;53.562;9.940;2022-08-19T02:21:37;21.80;;;17.40;;
54983;SDS011;40884;53.562;9.940;2022-08-19T02:22:37;21.83;;;17.53;;
54983;SDS011;40884;53.562;9.940;2022-08-19T02:23:37;22.87;;;17.10;;
54983;SDS011;40884;53.562;9.940;2022-08-19T02:24:37;25.00;;;19.03;;
54983;SDS011;40884;53.562;9.940;2022-08-19T02:25:37;25.97;;;18.47;;
54983;SDS011;40884;53.562;9.940;2022-08-19T02:26:38;26.57;;;19.97;;
54983;SDS011;40884;53.562;9.940;2022-08-19T02:27:38;25.70;;;19.20;;
54983;SDS011;40884;53.562;9.940;2022-08-19T02:28:39;24.97;;;18.37;;
54983;SDS011;40884;53.562;9.940;2022-08-19T02:29:42;19.27;;;17.20;;
54983;SDS011;40884;53.562;9.940;2022-08-19T02:30:43;25.93;;;19.07;;
54983;SDS011;40884;53.562;9.940;2022-08-19T02:31:43;24.20;;;18.67;;
54983;SDS011;40884;53.562;9.940;2022-08-19T02:32:43;26.93;;;19.50;;
54983;SDS011;40884;53.562;9.940;2022-08-19T02:33:43;27.47;;;19.30;;
54983;SDS011;40884;53.562;9.940;2022-08-19T02:34:44;26.90;;;19.37;;
54983;SDS011;40884;53.562;9.940;2022-08-19T02:35:45;26.73;;;19.53;;
54983;SDS011;40884;53.562;9.940;2022-08-19T02:36:45;27.90;;;19.77;;
54983;SDS011;40884;53.562;9.940;2022-08-19T02:37:45;29.60;;;21.00;;
54983;SDS011;40884;53.562;9.940;2022-08-19T02:38:45;29.40;;;20.83;;
54983;SDS011;40884;53.562;9.940;2022-08-19T02:39:45;30.30;;;21.07;;
54983;SDS011;40884;53.562;9.940;2022-08-19T02:40:49;29.67;;;21.37;;
54983;SDS011;40884;53.562;9.940;2022-08-19T02:41:49;29.90;;;20.90;;
54983;SDS011;40884;53.562;9.940;2022-08-19T02:42:49;25.37;;;19.73;;
54983;SDS011;40884;53.562;9.940;2022-08-19T02:43:49;29.07;;;21.17;;
54983;SDS011;40884;53.562;9.940;2022-08-19T02:44:50;29.07;;;21.43;;
54983;SDS011;40884;53.562;9.940;2022-08-19T02:45:50;28.13;;;20.10;;
54983;SDS011;40884;53.562;9.940;2022-08-19T02:46:50;32.77;;;22.10;;
54983;SDS011;40884;53.562;9.940;2022-08-19T02:47:50;29.67;;;21.83;;
54983;SDS011;40884;53.562;9.940;2022-08-19T02:48:51;30.93;;;21.77;;
54983;SDS011;40884;53.562;9.940;2022-08-19T02:49:52;31.80;;;22.73;;
54983;SDS011;40884;53.562;9.940;2022-08-19T02:50:52;33.30;;;22.10;;
54983;SDS011;40884;53.562;9.940;2022-08-19T02:51:52;32.97;;;21.93;;
54983;SDS011;40884;53.562;9.940;2022-08-19T02:52:52;33.03;;;22.57;;
54983;SDS011;40884;53.562;9.940;2022-08-19T02:53:53;33.63;;;23.33;;
54983;SDS011;40884;53.562;9.940;2022-08-19T02:54:53;36.27;;;24.70;;
54983;SDS011;40884;53.562;9.940;2022-08-19T02:55:53;33.57;;;23.13;;
54983;SDS011;40884;53.562;9.940;2022-08-19T02:56:54;33.53;;;23.60;;
54983;SDS011;40884;53.562;9.940;2022-08-19T02:57:54;32.30;;;22.07;;
54983;SDS011;40884;53.562;9.940;2022-08-19T02:58:54;34.70;;;24.27;;
54983;SDS011;40884;53.562;9.940;2022-08-19T02:59:55;35.73;;;24.73;;
54983;SDS011;40884;53.562;9.940;2022-08-19T03:00:55;36.40;;;24.37;;
54983;SDS011;40884;53.562;9.940;2022-08-19T03:01:56;39.23;;;25.20;;
54983;SDS011;40884;53.562;9.940;2022-08-19T03:02:56;29.97;;;21.03;;
54983;SDS011;40884;53.562;9.940;2022-08-19T03:03:56;35.10;;;23.20;;
54983;SDS011;40884;53.562;9.940;2022-08-19T03:04:57;32.03;;;23.43;;
54983;SDS011;40884;53.562;9.940;2022-08-19T03:06:04;35.03;;;24.67;;
54983;SDS011;40884;53.562;9.940;2022-08-19T03:07:04;33.40;;;21.90;;
54983;SDS011;40884;53.562;9.940;2022-08-19T03:08:04;35.53;;;23.30;;
54983;SDS011;40884;53.562;9.940;2022-08-19T03:09:04;41.50;;;24.53;;
54983;SDS011;40884;53.562;9.940;2022-08-19T03:10:04;42.73;;;25.80;;
54983;SDS011;40884;53.562;9.940;2022-08-19T03:11:05;35.73;;;24.53;;
54983;SDS011;40884;53.562;9.940;2022-08-19T03:12:05;38.17;;;26.30;;
54983;SDS011;40884;53.562;9.940;2022-08-19T03:13:05;40.37;;;26.50;;
54983;SDS011;40884;53.562;9.940;2022-08-19T03:14:06;43.43;;;26.20;;
54983;SDS011;40884;53.562;9.940;2022-08-19T03:15:07;41.67;;;25.67;;
54983;SDS011;40884;53.562;9.940;2022-08-19T03:16:07;39.60;;;24.37;;
54983;SDS011;40884;53.562;9.940;2022-08-19T03:17:07;40.87;;;26.93;;
54983;SDS011;40884;53.562;9.940;2022-08-19T03:18:08;47.43;;;28.73;;
54983;SDS011;40884;53.562;9.940;2022-08-19T03:19:08;46.27;;;28.40;;
54983;SDS011;40884;53.562;9.940;2022-08-19T03:20:08;38.77;;;25.73;;
54983;SDS011;40884;53.562;9.940;2022-08-19T03:21:08;42.17;;;25.93;;
54983;SDS011;40884;53.562;9.940;2022-08-19T03:22:08;39.90;;;26.40;;
54983;SDS011;40884;53.562;9.940;2022-08-19T03:23:08;42.80;;;27.10;;
54983;SDS011;40884;53.562;9.940;2022-08-19T03:24:09;42.80;;;27.23;;
54983;SDS011;40884;53.562;9.940;2022-08-19T03:25:09;44.63;;;28.37;;
54983;SDS011;40884;53.562;9.940;2022-08-19T03:26:09;39.10;;;26.23;;
54983;SDS011;40884;53.562;9.940;2022-08-19T03:27:09;46.43;;;28.10;;
54983;SDS011;40884;53.562;9.940;2022-08-19T03:28:12;44.03;;;27.73;;
54983;SDS011;40884;53.562;9.940;2022-08-19T03:29:13;43.60;;;27.10;;
54983;SDS011;40884;53.562;9.940;2022-08-19T03:30:14;41.30;;;26.10;;
54983;SDS011;40884;53.562;9.940;2022-08-19T03:31:14;42.70;;;26.93;;
54983;SDS011;40884;53.562;9.940;2022-08-19T03:32:14;37.70;;;24.00;;
54983;SDS011;40884;53.562;9.940;2022-08-19T03:33:14;42.80;;;27.17;;
54983;SDS011;40884;53.562;9.940;2022-08-19T03:34:16;39.20;;;25.07;;
54983;SDS011;40884;53.562;9.940;2022-08-19T03:35:16;45.40;;;27.93;;
54983;SDS011;40884;53.562;9.940;2022-08-19T03:36:21;40.53;;;25.80;;
54983;SDS011;40884;53.562;9.940;2022-08-19T03:37:21;42.97;;;28.43;;
54983;SDS011;40884;53.562;9.940;2022-08-19T03:38:22;37.30;;;25.30;;
54983;SDS011;40884;53.562;9.940;2022-08-19T03:39:22;36.20;;;25.60;;
54983;SDS011;40884;53.562;9.940;2022-08-19T03:40:23;41.23;;;26.57;;
54983;SDS011;40884;53.562;9.940;2022-08-19T03:41:24;34.40;;;23.20;;
54983;SDS011;40884;53.562;9.940;2022-08-19T03:42:24;33.83;;;22.90;;
54983;SDS011;40884;53.562;9.940;2022-08-19T03:43:24;37.30;;;25.90;;
54983;SDS011;40884;53.562;9.940;2022-08-19T03:44:25;33.70;;;23.03;;
54983;SDS011;40884;53.562;9.940;2022-08-19T03:45:25;32.03;;;22.83;;
54983;SDS011;40884;53.562;9.940;2022-08-19T03:46:26;36.47;;;23.60;;
54983;SDS011;40884;53.562;9.940;2022-08-19T03:47:27;34.10;;;22.77;;
54983;SDS011;40884;53.562;9.940;2022-08-19T03:48:27;33.70;;;23.90;;
54983;SDS011;40884;53.562;9.940;2022-08-19T03:49:29;30.27;;;22.80;;
54983;SDS011;40884;53.562;9.940;2022-08-19T03:50:29;33.37;;;24.90;;
54983;SDS011;40884;53.562;9.940;2022-08-19T03:51:30;29.93;;;22.60;;
54983;SDS011;40884;53.562;9.940;2022-08-19T03:52:31;33.70;;;22.77;;
54983;SDS011;40884;53.562;9.940;2022-08-19T03:53:32;37.27;;;24.90;;
54983;SDS011;40884;53.562;9.940;2022-08-19T03:54:33;36.07;;;25.43;;
54983;SDS011;40884;53.562;9.940;2022-08-19T03:55:33;36.83;;;24.67;;
54983;SDS011;40884;53.562;9.940;2022-08-19T03:56:34;40.50;;;25.57;;
54983;SDS011;40884;53.562;9.940;2022-08-19T03:57:34;30.90;;;23.17;;
54983;SDS011;40884;53.562;9.940;2022-08-19T03:58:34;36.87;;;25.53;;
54983;SDS011;40884;53.562;9.940;2022-08-19T03:59:34;37.67;;;26.83;;
54983;SDS011;40884;53.562;9.940;2022-08-19T04:00:35;32.87;;;24.47;;
54983;SDS011;40884;53.562;9.940;2022-08-19T04:01:35;28.87;;;21.23;;
54983;SDS011;40884;53.562;9.940;2022-08-19T04:02:35;36.00;;;25.60;;
54983;SDS011;40884;53.562;9.940;2022-08-19T04:03:36;35.27;;;24.93;;
54983;SDS011;40884;53.562;9.940;2022-08-19T04:04:37;30.90;;;22.50;;
54983;SDS011;40884;53.562;9.940;2022-08-19T04:05:37;33.87;;;24.10;;
54983;SDS011;40884;53.562;9.940;2022-08-19T04:06:38;37.73;;;25.07;;
54983;SDS011;40884;53.562;9.940;2022-08-19T04:07:38;32.07;;;23.17;;
54983;SDS011;40884;53.562;9.940;2022-08-19T04:08:39;32.67;;;24.17;;
54983;SDS011;40884;53.562;9.940;2022-08-19T04:09:39;37.30;;;26.13;;
54983;SDS011;40884;53.562;9.940;2022-08-19T04:10:40;36.60;;;26.53;;
54983;SDS011;40884;53.562;9.940;2022-08-19T04:11:42;35.57;;;26.27;;
54983;SDS011;40884;53.562;9.940;2022-08-19T04:12:42;26.20;;;21.07;;
54983;SDS011;40884;53.562;9.940;2022-08-19T04:13:42;33.30;;;24.30;;
54983;SDS011;40884;53.562;9.940;2022-08-19T04:14:42;36.30;;;25.17;;
54983;SDS011;40884;53.562;9.940;2022-08-19T04:15:43;32.87;;;23.50;;
54983;SDS011;40884;53.562;9.940;2022-08-19T04:16:43;40.47;;;27.33;;
54983;SDS011;40884;53.562;9.940;2022-08-19T04:17:44;35.50;;;26.70;;
54983;SDS011;40884;53.562;9.940;2022-08-19T04:18:44;34.87;;;25.30;;
54983;SDS011;40884;53.562;9.940;2022-08-19T04:19:44;34.47;;;25.80;;
54983;SDS011;40884;53.562;9.940;2022-08-19T04:20:45;35.13;;;24.97;;
54983;SDS011;40884;53.562;9.940;2022-08-19T04:21:46;32.30;;;25.03;;
54983;SDS011;40884;53.562;9.940;2022-08-19T04:22:47;34.57;;;25.50;;
54983;SDS011;40884;53.562;9.940;2022-08-19T04:23:47;31.13;;;23.43;;
54983;SDS011;40884;53.562;9.940;2022-08-19T04:24:47;34.77;;;24.70;;
54983;SDS011;40884;53.562;9.940;2022-08-19T04:25:47;32.47;;;23.67;;
54983;SDS011;40884;53.562;9.940;2022-08-19T04:26:48;33.90;;;26.33;;
54983;SDS011;40884;53.562;9.940;2022-08-19T04:27:48;29.83;;;22.90;;
54983;SDS011;40884;53.562;9.940;2022-08-19T04:28:48;34.23;;;26.33;;
54983;SDS011;40884;53.562;9.940;2022-08-19T04:29:48;34.43;;;26.60;;
54983;SDS011;40884;53.562;9.940;2022-08-19T04:30:50;33.83;;;26.67;;
54983;SDS011;40884;53.562;9.940;2022-08-19T04:31:50;39.07;;;27.27;;
54983;SDS011;40884;53.562;9.940;2022-08-19T04:32:51;35.37;;;24.90;;
54983;SDS011;40884;53.562;9.940;2022-08-19T04:33:58;27.47;;;21.97;;
54983;SDS011;40884;53.562;9.940;2022-08-19T04:34:58;32.83;;;26.33;;
54983;SDS011;40884;53.562;9.940;2022-08-19T04:35:58;37.10;;;25.17;;
54983;SDS011;40884;53.562;9.940;2022-08-19T04:36:58;27.37;;;19.83;;
54983;SDS011;40884;53.562;9.940;2022-08-19T04:37:59;29.53;;;25.23;;
54983;SDS011;40884;53.562;9.940;2022-08-19T04:39:00;37.43;;;25.50;;
54983;SDS011;40884;53.562;9.940;2022-08-19T04:40:01;31.70;;;24.47;;
54983;SDS011;40884;53.562;9.940;2022-08-19T04:41:02;28.53;;;21.30;;
54983;SDS011;40884;53.562;9.940;2022-08-19T04:42:02;25.70;;;20.17;;
54983;SDS011;40884;53.562;9.940;2022-08-19T04:43:03;30.87;;;23.63;;
54983;SDS011;40884;53.562;9.940;2022-08-19T04:44:03;28.57;;;23.07;;
54983;SDS011;40884;53.562;9.940;2022-08-19T04:45:04;30.17;;;22.87;;
54983;SDS011;40884;53.562;9.940;2022-08-19T04:46:08;26.73;;;22.47;;
54983;SDS011;40884;53.562;9.940;2022-08-19T04:47:08;25.23;;;20.17;;
54983;SDS011;40884;53.562;9.940;2022-08-19T04:48:09;27.37;;;20.33;;
54983;SDS011;40884;53.562;9.940;2022-08-19T04:49:09;24.90;;;19.17;;
54983;SDS011;40884;53.562;9.940;2022-08-19T04:50:09;25.70;;;21.10;;
54983;SDS011;40884;53.562;9.940;2022-08-19T04:51:10;24.00;;;18.33;;
54983;SDS011;40884;53.562;9.940;2022-08-19T04:52:10;25.80;;;21.03;;
54983;SDS011;40884;53.562;9.940;2022-08-19T04:53:10;24.50;;;18.20;;
54983;SDS011;40884;53.562;9.940;2022-08-19T04:54:11;24.97;;;18.93;;
54983;SDS011;40884;53.562;9.940;2022-08-19T04:55:11;27.10;;;18.87;;
54983;SDS011;40884;53.562;9.940;2022-08-19T04:56:12;25.70;;;17.77;;
54983;SDS011;40884;53.562;9.940;2022-08-19T04:57:13;23.90;;;19.10;;
54983;SDS011;40884;53.562;9.940;2022-08-19T04:58:13;25.53;;;18.63;;
54983;SDS011;40884;53.562;9.940;2022-08-19T04:59:13;25.70;;;19.97;;
54983;SDS011;40884;53.562;9.940;2022-08-19T05:00:13;22.73;;;19.17;;
54983;SDS011;40884;53.562;9.940;2022-08-19T05:01:14;26.97;;;20.47;;
54983;SDS011;40884;53.562;9.940;2022-08-19T05:02:16;28.20;;;21.57;;
54983;SDS011;40884;53.562;9.940;2022-08-19T05:03:17;27.20;;;22.00;;
54983;SDS011;40884;53.562;9.940;2022-08-19T05:04:18;30.53;;;22.30;;
54983;SDS011;40884;53.562;9.940;2022-08-19T05:05:18;29.50;;;20.73;;
54983;SDS011;40884;53.562;9.940;2022-08-19T05:06:19;28.90;;;21.97;;
54983;SDS011;40884;53.562;9.940;2022-08-19T05:07:19;29.57;;;21.97;;
54983;SDS011;40884;53.562;9.940;2022-08-19T05:08:21;27.60;;;20.77;;
54983;SDS011;40884;53.562;9.940;2022-08-19T05:09:21;28.10;;;20.70;;
54983;SDS011;40884;53.562;9.940;2022-08-19T05:10:21;25.60;;;18.77;;
54983;SDS011;40884;53.562;9.940;2022-08-19T05:11:22;27.10;;;21.47;;
54983;SDS011;40884;53.562;9.940;2022-08-19T05:12:23;31.60;;;23.13;;
54983;SDS011;40884;53.562;9.940;2022-08-19T05:13:23;32.70;;;22.30;;
54983;SDS011;40884;53.562;9.940;2022-08-19T05:14:23;28.97;;;20.57;;
54983;SDS011;40884;53.562;9.940;2022-08-19T05:15:23;31.87;;;22.03;;
54983;SDS011;40884;53.562;9.940;2022-08-19T05:16:24;26.30;;;19.23;;
54983;SDS011;40884;53.562;9.940;2022-08-19T05:17:25;27.30;;;21.07;;
54983;SDS011;40884;53.562;9.940;2022-08-19T05:18:26;25.40;;;21.23;;
54983;SDS011;40884;53.562;9.940;2022-08-19T05:19:26;28.50;;;20.00;;
54983;SDS011;40884;53.562;9.940;2022-08-19T05:20:26;29.33;;;20.23;;
54983;SDS011;40884;53.562;9.940;2022-08-19T05:21:26;27.17;;;20.97;;
54983;SDS011;40884;53.562;9.940;2022-08-19T05:22:26;27.67;;;18.70;;
54983;SDS011;40884;53.562;9.940;2022-08-19T05:23:26;26.03;;;19.00;;
54983;SDS011;40884;53.562;9.940;2022-08-19T05:24:26;25.17;;;19.30;;
54983;SDS011;40884;53.562;9.940;2022-08-19T05:25:27;24.13;;;19.23;;
54983;SDS011;40884;53.562;9.940;2022-08-19T05:26:27;26.23;;;20.33;;
54983;SDS011;40884;53.562;9.940;2022-08-19T05:27:28;24.57;;;18.40;;
54983;SDS011;40884;53.562;9.940;2022-08-19T05:28:28;24.93;;;19.90;;
54983;SDS011;40884;53.562;9.940;2022-08-19T05:29:28;26.43;;;19.07;;
54983;SDS011;40884;53.562;9.940;2022-08-19T05:30:28;26.10;;;19.27;;
54983;SDS011;40884;53.562;9.940;2022-08-19T05:31:29;23.37;;;17.90;;
54983;SDS011;40884;53.562;9.940;2022-08-19T05:32:29;22.50;;;17.90;;
54983;SDS011;40884;53.562;9.940;2022-08-19T05:33:29;24.57;;;19.30;;
54983;SDS011;40884;53.562;9.940;2022-08-19T05:34:29;25.17;;;18.13;;
54983;SDS011;40884;53.562;9.940;2022-08-19T05:35:30;23.67;;;17.73;;
54983;SDS011;40884;53.562;9.940;2022-08-19T05:36:35;24.37;;;17.67;;
54983;SDS011;40884;53.562;9.940;2022-08-19T05:37:35;24.53;;;17.63;;
54983;SDS011;40884;53.562;9.940;2022-08-19T05:38:35;24.77;;;17.93;;
54983;SDS011;40884;53.562;9.940;2022-08-19T05:39:36;25.77;;;16.47;;
54983;SDS011;40884;53.562;9.940;2022-08-19T05:40:38;24.73;;;17.30;;
54983;SDS011;40884;53.562;9.940;2022-08-19T05:41:58;27.27;;;18.63;;
54983;SDS011;40884;53.562;9.940;2022-08-19T05:42:58;21.83;;;15.73;;
54983;SDS011;40884;53.562;9.940;2022-08-19T05:44:03;23.53;;;17.57;;
54983;SDS011;40884;53.562;9.940;2022-08-19T05:45:03;23.90;;;17.27;;
54983;SDS011;40884;53.562;9.940;2022-08-19T05:46:04;22.30;;;16.93;;
54983;SDS011;40884;53.562;9.940;2022-08-19T05:47:05;20.70;;;15.03;;
54983;SDS011;40884;53.562;9.940;2022-08-19T05:48:05;22.57;;;16.17;;
54983;SDS011;40884;53.562;9.940;2022-08-19T05:49:05;21.47;;;15.30;;
54983;SDS011;40884;53.562;9.940;2022-08-19T05:50:06;24.23;;;16.43;;
54983;SDS011;40884;53.562;9.940;2022-08-19T05:51:07;20.70;;;16.30;;
54983;SDS011;40884;53.562;9.940;2022-08-19T05:52:08;20.67;;;15.13;;
54983;SDS011;40884;53.562;9.940;2022-08-19T05:53:09;21.33;;;14.47;;
54983;SDS011;40884;53.562;9.940;2022-08-19T05:54:09;19.97;;;15.40;;
54983;SDS011;40884;53.562;9.940;2022-08-19T05:55:09;20.23;;;15.87;;
54983;SDS011;40884;53.562;9.940;2022-08-19T05:56:11;20.03;;;16.10;;